Fitzgerald, Georgia
Current Conditions -  °F | °C
As of 4:55 PM on Tuesday 25 Nov 2014 (Local Time) from KFZG Reporting Station
Overcast Overcast  
Wind Chill: 52°   Ceiling: 7000
Heat Index: 52°   Visibility: 10mi
Dew Point: 49°   Wind: 3mph
Humidity: 90%   Direction: 40°NE
Pressure: 30.03"   Gusts: NA
Location:  31.72°N, 83.25°W
Report Text: KFZG 252155Z AUTO 04003KT 10SM BKN070 OVC085 11/09 A3003 RMK AO2 T01100094
Loading
Personal Weather Stations






























Interactive Weather Map New forecast layout! Learn more

10-Day Weather Forecast

Advertisements
Track Severe Weather on mobile